Sweeney Granite Mountains, California Weather observations

Data are for 10 minute period ending at time listed.
 Day   Time   Solar   Ave.   Ave.  Ave.  Vector  Max.   Baro.   Total    
  of    of     Rad.   Air    Rel.  Wind   Wind   Wind  Press.  Precip.   
Year   Day            Temp.  Hum.  Speed  Dir.   Gust                    
2017   (PST)  Kw/m2    F      %     mph   deg.    mph    mb.     in.     
-------------------------------------------------------------------------
 324   16:10   0.03   53.9    11    2.7    98     5.3   870.9    0.00 
 324   16:20   0.02   54.2    11    2.1    17     4.6   870.8    0.00 
 324   16:30   0.01   56.7    10    5.1    46    10.8   870.6    0.00 
 324   16:40   0.00   57.4    10    7.6    53    12.2   870.6    0.00 
 324   16:50   0.00   57.9     9    4.9    73     9.3   870.6    0.00 
 324   17:00   0.00   57.1    10    3.2   264     7.8   870.7    0.00 
 324   17:10   0.00   56.9    10    3.2   270     7.6   870.7    0.00 
 324   17:20   0.00   56.4    10    2.3    86     3.9   870.8    0.00 
 324   17:30   0.00   56.8    10    2.0    53     5.7   870.9    0.00 
 324   17:40   0.00   56.2    10    1.4   218     3.6   871.0    0.00 
 324   17:50   0.00   55.1    10    1.2   113     3.1   871.2    0.00 
 324   18:00   0.00   54.0    11    0.9   126     2.0   871.3    0.00 
 324   18:10   0.00   52.5    11    1.5   107     2.8   871.4    0.00 
 324   18:20   0.00   52.3    11    2.4   145     4.7   871.6    0.00 
 324   18:30   0.00   50.2    12    1.6   306     3.1   871.6    0.00 
 324   18:40   0.00   51.7    11    1.8   261     3.0   871.7    0.00 
 324   18:50   0.00   50.6    12    2.9   300     4.7   871.9    0.00 
 324   19:00   0.00   49.8    12    3.5   274     4.7   872.1    0.00 
 324   19:10   0.00   49.4    12    2.2   268     4.3   872.1    0.00 
 324   19:20   0.00   50.5    12    0.2   266     1.6   872.2    0.00 
 324   19:30   0.00   48.2    13    3.8   288     4.8   872.3    0.00 
 324   19:40   0.00   50.1    12    2.0   278     3.4   872.5    0.00 
 324   19:50   0.00   49.9    12    1.5    72     2.9   872.5    0.00 
 324   20:00   0.00   48.6    12    1.1   234     4.3   872.6    0.00 
 324   20:10   0.00   53.5    11    1.4   292     4.5   872.7    0.00 
 324   20:20   0.00   52.7    11    2.4    71     4.5   872.7    0.00 
 324   20:30   0.00   54.2    11    1.6   115     3.1   872.8    0.00 
 324   20:40   0.00   55.1    10    2.1   104     3.9   872.9    0.00 
 324   20:50   0.00   54.7    10    0.9    53     2.9   873.0    0.00 
 324   21:00   0.00   54.5    11    1.1   101     2.5   873.0    0.00 
 324   21:10   0.00   54.6    11    0.7    63     2.1   873.0    0.00 
 324   21:20   0.00   54.8    10    1.1     3     2.5   873.1    0.00 
 324   21:30   0.00   55.1    10    2.1   288     4.1   873.1    0.00 
 324   21:40   0.00   57.0    10    3.2   287     5.9   873.1    0.00 
 324   21:50   0.00   57.5    10    1.7    22     6.4   873.0    0.00 
 324   22:00   0.00   56.2    10    1.1   155     4.4   873.2    0.00 
 324   22:10   0.00   56.0    10    2.1   146     4.7   873.4    0.00 
 324   22:20   0.00   55.4    10    2.9   185     4.8   873.5    0.00 
 324   22:30   0.00   54.5    10    1.4   249     3.6   873.5    0.00 
 324   22:40   0.00   53.6    11    2.3   294     3.7   873.5    0.00 
 324   22:50   0.00   51.3    12    1.1   276     2.0   873.6    0.00 
 324   23:00   0.00   50.6    12    2.0   341     5.3   873.8    0.00 
 324   23:10   0.00   51.0    12    1.5   304     2.9   873.6    0.00 
 324   23:20   0.00   48.9    12    1.9   283     3.3   873.4    0.00 
 324   23:30   0.00   50.8    12    3.9   288     7.2   873.5    0.00 
 324   23:40   0.00   57.2    10    5.3   318     8.7   873.5    0.00 
 324   23:50   0.00   59.9    10    6.7   312    10.1   873.3    0.00 
 325    0:00   0.00   58.7    10    2.8    99     5.4   873.3    0.00 
 325    0:10   0.00   58.1    10    2.2   195     7.1   873.5    0.00 
 325    0:20   0.00   55.9    11    4.4   283     7.4   873.6    0.00 
 325    0:30   0.00   57.7    11    4.1   334     6.5   873.5    0.00 
 325    0:40   0.00   56.0    12    3.4    88     5.8   873.6    0.00 
 325    0:50   0.00   55.0    12    2.9   343     7.7   873.4    0.00 
 325    1:00   0.00   55.9    12    5.3   282     8.3   873.4    0.00 
 325    1:10   0.00   59.2    12    5.3   322    11.5   873.3    0.00 
 325    1:20   0.00   59.1    12    0.7   288     1.8   873.4    0.00 
 325    1:30   0.00   59.6    14    5.7   310     9.6   873.4    0.00 
 325    1:40   0.00   62.1    14    7.5   308    11.0   873.3    0.00 
 325    1:50   0.00   62.6    14    8.3   299    14.0   873.3    0.00 
 325    2:00   0.00   62.1    15    7.0   260    10.2   873.3    0.00 
 325    2:10   0.00   62.1    15    5.2   276    10.0   873.3    0.00 
 325    2:20   0.00   61.1    17    1.0   345     2.9   873.3    0.00 
 325    2:30   0.00   61.4    15    5.9   299    13.2   873.3    0.00 
 325    2:40   0.00   62.4    13   10.2   307    16.1   873.3    0.00 
 325    2:50   0.00   62.7    12   12.6   306    17.1   873.3    0.00 
 325    3:00   0.00   62.5    11   14.4   306    19.7   873.3    0.00 
 325    3:10   0.00   62.8    11   14.8   308    18.9   873.5    0.00 
 325    3:20   0.00   62.8    10   15.6   311    19.5   873.6    0.00 
 325    3:30   0.00   62.8    10   14.2   313    18.1   873.5    0.00 
 325    3:40   0.00   62.8    10   13.9   316    18.8   873.5    0.00 
 325    3:50   0.00   63.0    10   13.5   317    18.6   873.7    0.00 
 325    4:00   0.00   63.0    10   12.4   319    18.7   873.8    0.00 
 325    4:10   0.00   63.2     9   11.7   322    16.9   873.8    0.00 
 325    4:20   0.00   63.2     9   13.9   318    19.1   873.8    0.00 
 325    4:30   0.00   63.2     9   12.3   320    19.2   873.8    0.00 
 325    4:40   0.00   63.4    10   11.6   314    16.1   873.9    0.00 
 325    4:50   0.00   63.3    12   11.4   309    15.6   873.9    0.00 
 325    5:00   0.00   63.2    13   10.8   307    15.5   873.9    0.00 
 325    5:10   0.00   63.6    15   10.6   308    14.8   873.8    0.00 
 325    5:20   0.00   64.0    16   10.6   313    14.6   873.9    0.00 
 325    5:30   0.00   64.1    17   11.3   318    16.7   874.1    0.00 
 325    5:40   0.00   64.1    17   11.8   316    16.3   874.2    0.00 
 325    5:50   0.00   64.1    18   12.0   318    16.2   874.3    0.00 
 325    6:00   0.00   64.1    18   11.5   318    15.4   874.4    0.00 
 325    6:10   0.00   64.2    20   11.0   314    14.2   874.6    0.00 
 325    6:20   0.00   64.1    19   11.0   315    14.3   874.7    0.00 
 325    6:30   0.00   64.1    19   11.0   319    13.8   874.8    0.00 
 325    6:40   0.00   64.1    18   11.4   316    14.9   874.9    0.00 
 325    6:50   0.01   64.2    18   11.9   315    15.6   875.0    0.00 
 325    7:00   0.02   64.2    19   12.5   308    16.7   875.0    0.00 
 325    7:10   0.05   64.3    20   13.6   306    17.9   875.1    0.00 
 325    7:20   0.06   64.9    21   13.6   306    17.2   875.2    0.00 
 325    7:30   0.12   66.0    21   13.5   306    17.2   875.3    0.00 
 325    7:40   0.15   67.0    21   12.8   306    17.6   875.4    0.00 
 325    7:50   0.17   67.5    21   11.2   311    15.0   875.7    0.00 
 325    8:00   0.19   67.7    21   11.0   313    16.1   875.8    0.00 
 325    8:10   0.25   68.2    21   10.5   310    15.4   876.0    0.00 
 325    8:20   0.25   68.4    20   11.5   310    16.0   876.2    0.00 
 325    8:30   0.25   68.8    20   11.2   309    16.1   876.3    0.00 
 325    8:40   0.28   69.0    21   11.2   310    16.1   876.4    0.00 
 325    8:50   0.31   69.4    20   11.4   312    16.6   876.5    0.00 
 325    9:00   0.35   69.8    20   10.0   310    14.5   876.6    0.00 
 325    9:10   0.40   70.3    20   10.7   310    14.8   876.8    0.00 
 325    9:20   0.42   70.7    21   10.5   307    15.6   876.9    0.00 
 325    9:30   0.44   71.3    22   10.7   305    16.7   877.0    0.00 
 325    9:40   0.48   71.5    22   11.0   309    17.0   877.1    0.00 
 325    9:50   0.48   71.7    21    9.5   308    17.4   877.3    0.00 
 325   10:00   0.49   71.4    21   10.0   309    16.2   877.3    0.00 
 325   10:10   0.49   71.7    21   10.4   306    16.2   877.3    0.00 
 325   10:20   0.53   71.5    21   10.5   306    18.2   877.3    0.00 
 325   10:30   0.53   71.6    21   10.0   310    20.4   877.3    0.00 
 325   10:40   0.53   71.6    21   11.1   299    19.7   877.3    0.00 
 325   10:50   0.53   72.0    21   10.5   301    17.2   877.2    0.00 
 325   11:00   0.55   72.2    20    8.5   301    15.9   877.2    0.00 
 325   11:10   0.56   72.2    20   10.9   299    21.2   877.1    0.00 
 325   11:20   0.57   72.1    20   12.1   294    22.0   877.0    0.00 
 325   11:30   0.57   71.9    21   11.9   300    19.0   876.9    0.00 
 325   11:40   0.59   71.5    20   12.6   294    22.8   876.8    0.00 
 325   11:50   0.60   71.4    20   12.8   296    21.8   876.6    0.00 
 325   12:00   0.58   71.6    21   12.7   296    20.2   876.6    0.00 
 325   12:10   0.58   71.3    22   13.4   303    20.8   876.5    0.00 
 325   12:20   0.58   71.4    22   12.8   299    25.6   876.5    0.00 
 325   12:30   0.50   71.0    21   13.6   296    20.4   876.5    0.00 
 325   12:40   0.55   70.8    22   12.7   301    19.2   876.4    0.00 
 325   12:50   0.55   71.9    22   11.6   305    18.3   876.3    0.00 
 325   13:00   0.54   71.2    21   12.2   310    21.3   876.4    0.00 
 325   13:10   0.50   70.9    22   12.8   313    20.6   876.4    0.00 
 325   13:20   0.52   70.7    22   12.3   311    22.3   876.3    0.00 
 325   13:30   0.48   71.0    21   10.3   328    18.0   876.2    0.00 
 325   13:40   0.38   70.9    20   10.2   328    17.2   876.1    0.00 
 325   13:50   0.38   70.5    20   11.1   317    18.3   876.0    0.00 
 325   14:00   0.45   70.7    19   11.6   315    22.3   875.9    0.00 
 325   14:10   0.44   70.9    18   10.0   313    18.7   875.9    0.00 
 325   14:20   0.40   71.1    18    9.0   304    20.0   875.9    0.00 
 325   14:30   0.32   71.3    19    5.2   292    21.9   875.9    0.00 
 325   14:40   0.26   71.6    21    4.1    20    10.5   875.9    0.00 
 325   14:50   0.18   70.5    23    5.0   339    14.1   875.9    0.00 
 325   15:00   0.18   70.1    23    6.6   317    14.8   875.9    0.00 
 325   15:10   0.13   69.3    22    7.1   324    13.2   875.9    0.00 
 325   15:20   0.10   68.8    22    8.0   334    14.3   875.9    0.00 
 325   15:30   0.08   68.7    22    8.5   359    17.8   875.9    0.00 
 325   15:40   0.07   68.3    22    8.4   339    17.2   875.9    0.00 
 325   15:50   0.06   67.9    22    8.5   322    16.1   875.9    0.00 
 325   16:00   0.04   67.8    23    7.8   338    13.8   875.8    0.00 

Return to Sweeney Granite Mountains graphs page.


Western Regional Climate Center,wrcc@dri.edu